createdAt,value
2018-11-13T00:00:24.114Z,497
2018-11-13T00:01:31.319Z,497
2018-11-13T00:02:38.249Z,497
2018-11-13T00:03:45.451Z,497
2018-11-13T00:04:52.654Z,496
2018-11-13T00:05:59.609Z,497
2018-11-13T00:07:06.814Z,497
2018-11-13T00:08:13.744Z,495
2018-11-13T00:09:20.947Z,496
2018-11-13T00:10:27.607Z,496
2018-11-13T00:11:34.523Z,497
2018-11-13T00:12:41.516Z,496
2018-11-13T00:13:48.717Z,496
2018-11-13T00:14:55.665Z,497
2018-11-13T00:16:02.869Z,497
2018-11-13T00:17:10.085Z,496
2018-11-13T00:18:16.737Z,497
2018-11-13T00:19:23.950Z,495
2018-11-13T00:20:30.872Z,496
2018-11-13T00:21:38.070Z,494
2018-11-13T00:22:44.997Z,495
2018-11-13T00:23:51.714Z,495
2018-11-13T00:24:58.960Z,493
2018-11-13T00:26:05.891Z,493
2018-11-13T00:27:13.092Z,492
2018-11-13T00:28:20.294Z,492
2018-11-13T00:29:27.321Z,491
2018-11-13T00:30:34.010Z,491
2018-11-13T00:31:40.666Z,489
2018-11-13T00:32:47.619Z,490
2018-11-13T00:33:54.761Z,489
2018-11-13T00:35:01.695Z,488
2018-11-13T00:36:08.895Z,488
2018-11-13T00:37:15.821Z,487
2018-11-13T00:38:22.765Z,486
2018-11-13T00:39:29.964Z,485
2018-11-13T00:40:36.904Z,485
2018-11-13T00:41:44.103Z,483
2018-11-13T00:42:51.308Z,483
2018-11-13T00:43:58.513Z,481
2018-11-13T00:45:05.708Z,481
2018-11-13T00:46:12.922Z,480
2018-11-13T00:47:19.851Z,480
2018-11-13T00:48:28.880Z,480
2018-11-13T00:49:36.175Z,480
2018-11-13T00:50:43.781Z,480
2018-11-13T00:51:51.547Z,481
2018-11-13T00:52:58.472Z,481
2018-11-13T00:54:05.668Z,480
2018-11-13T00:55:12.869Z,482
2018-11-13T00:56:20.072Z,481
2018-11-13T00:57:26.717Z,481
2018-11-13T00:58:33.651Z,480
2018-11-13T00:59:40.575Z,481
2018-11-13T01:00:47.976Z,480
2018-11-13T01:01:54.711Z,481
2018-11-13T01:03:01.398Z,480
2018-11-13T01:04:08.329Z,480
2018-11-13T01:05:15.824Z,480
2018-11-13T01:06:23.231Z,480
2018-11-13T01:07:30.533Z,479
2018-11-13T01:08:37.756Z,480
2018-11-13T01:09:44.682Z,480
2018-11-13T01:10:51.607Z,479
2018-11-13T01:11:59.763Z,480
2018-11-13T01:13:07.066Z,480
2018-11-13T01:14:14.277Z,479
2018-11-13T01:15:21.201Z,479
2018-11-13T01:16:28.133Z,479
2018-11-13T01:17:35.335Z,480
2018-11-13T01:18:41.989Z,463
2018-11-13T01:19:48.920Z,461
2018-11-13T01:20:56.122Z,482
2018-11-13T01:22:03.050Z,489
2018-11-13T01:23:10.252Z,490
2018-11-13T01:24:18.548Z,490
2018-11-13T01:25:25.929Z,492
2018-11-13T01:26:32.851Z,494
2018-11-13T01:27:39.786Z,497
2018-11-13T01:28:46.981Z,497
2018-11-13T01:29:54.179Z,496
2018-11-13T01:31:01.112Z,496
2018-11-13T01:32:08.314Z,496
2018-11-13T01:33:15.241Z,497
2018-11-13T01:34:22.162Z,496
2018-11-13T01:35:29.365Z,499
2018-11-13T01:36:36.584Z,500
2018-11-13T01:37:43.644Z,500
2018-11-13T01:38:50.562Z,501
2018-11-13T01:39:57.769Z,501
2018-11-13T01:41:04.691Z,502
2018-11-13T01:42:11.893Z,502
2018-11-13T01:43:19.092Z,502
2018-11-13T01:44:26.013Z,503
2018-11-13T01:45:32.942Z,503
2018-11-13T01:46:39.840Z,504
2018-11-13T01:47:46.766Z,505
2018-11-13T01:48:54.484Z,505
2018-11-13T01:50:02.312Z,506
2018-11-13T01:51:09.244Z,507
2018-11-13T01:52:15.895Z,507
2018-11-13T01:53:22.826Z,508
2018-11-13T01:54:30.251Z,510
2018-11-13T01:55:37.923Z,509
2018-11-13T01:56:44.846Z,511
2018-11-13T01:57:51.777Z,511
2018-11-13T01:58:58.704Z,511
2018-11-13T02:00:05.643Z,511
2018-11-13T02:01:12.844Z,511
2018-11-13T02:02:19.768Z,512
2018-11-13T02:03:26.417Z,512
2018-11-13T02:04:33.614Z,511
2018-11-13T02:05:40.549Z,511
2018-11-13T02:06:47.478Z,511
2018-11-13T02:07:54.681Z,511
2018-11-13T02:09:01.879Z,511
2018-11-13T02:10:08.813Z,512
2018-11-13T02:11:16.012Z,512
2018-11-13T02:12:22.398Z,511
2018-11-13T02:13:29.040Z,512
2018-11-13T02:14:35.704Z,512
2018-11-13T02:15:42.902Z,512
2018-11-13T02:16:50.105Z,512
2018-11-13T02:17:57.034Z,512
2018-11-13T02:19:03.956Z,511
2018-11-13T02:20:10.879Z,511
2018-11-13T02:21:18.084Z,512
2018-11-13T02:22:25.013Z,512
2018-11-13T02:23:31.941Z,511
2018-11-13T02:24:38.871Z,512
2018-11-13T02:25:46.080Z,513
2018-11-13T02:26:53.001Z,512
2018-11-13T02:28:00.220Z,512
2018-11-13T02:29:07.149Z,512
2018-11-13T02:30:14.355Z,511
2018-11-13T02:31:21.284Z,511
2018-11-13T02:32:28.495Z,511
2018-11-13T02:33:35.693Z,511
2018-11-13T02:34:42.625Z,511
2018-11-13T02:35:49.825Z,511
2018-11-13T02:36:56.752Z,510
2018-11-13T02:38:03.952Z,510
2018-11-13T02:39:10.880Z,511
2018-11-13T02:40:18.101Z,511
2018-11-13T02:41:25.041Z,511
2018-11-13T02:42:31.427Z,511
2018-11-13T02:43:38.070Z,512
2018-11-13T02:44:44.743Z,512
2018-11-13T02:45:51.399Z,512
2018-11-13T02:46:58.325Z,513
2018-11-13T02:48:05.289Z,512
2018-11-13T02:49:12.218Z,512
2018-11-13T02:50:19.417Z,512
2018-11-13T02:51:26.622Z,512
2018-11-13T02:52:33.542Z,512
2018-11-13T02:53:40.745Z,512
2018-11-13T02:54:47.948Z,512
2018-11-13T02:55:55.145Z,512
2018-11-13T02:57:02.347Z,512
2018-11-13T02:58:08.999Z,512
2018-11-13T02:59:15.933Z,512
2018-11-13T03:00:23.135Z,513
2018-11-13T03:01:30.339Z,511
2018-11-13T03:02:37.548Z,512
2018-11-13T03:03:44.751Z,513
2018-11-13T03:04:51.958Z,511
2018-11-13T03:05:58.937Z,511
2018-11-13T03:07:05.865Z,511
2018-11-13T03:08:13.065Z,510
2018-11-13T03:09:19.994Z,512
2018-11-13T03:10:26.920Z,511
2018-11-13T03:11:34.126Z,512
2018-11-13T03:12:41.057Z,510
2018-11-13T03:13:48.459Z,510
2018-11-13T03:14:55.986Z,511
2018-11-13T03:16:03.236Z,512
2018-11-13T03:17:10.429Z,511
2018-11-13T03:18:17.096Z,511
2018-11-13T03:19:24.293Z,511
2018-11-13T03:20:31.223Z,511
2018-11-13T03:21:38.425Z,511
2018-11-13T03:22:45.653Z,511
2018-11-13T03:23:52.863Z,510
2018-11-13T03:25:00.060Z,511
2018-11-13T03:26:07.268Z,511
2018-11-13T03:27:14.469Z,511
2018-11-13T03:28:21.678Z,511
2018-11-13T03:29:28.610Z,512
2018-11-13T03:30:35.814Z,512
2018-11-13T03:31:42.738Z,512
2018-11-13T03:32:49.397Z,512
2018-11-13T03:33:56.600Z,511
2018-11-13T03:35:03.547Z,512
2018-11-13T03:36:10.740Z,512
2018-11-13T03:37:17.942Z,511
2018-11-13T03:38:24.920Z,512
2018-11-13T03:39:32.155Z,512
2018-11-13T03:40:39.082Z,512
2018-11-13T03:41:46.007Z,513
2018-11-13T03:42:53.213Z,514
2018-11-13T03:44:00.146Z,513
2018-11-13T03:45:06.802Z,514
2018-11-13T03:46:13.455Z,516
2018-11-13T03:47:20.659Z,517
2018-11-13T03:48:27.860Z,517
2018-11-13T03:49:34.791Z,516
2018-11-13T03:50:41.715Z,518
2018-11-13T03:51:48.640Z,516
2018-11-13T03:52:55.568Z,517
2018-11-13T03:54:02.495Z,518
2018-11-13T03:55:09.429Z,518
2018-11-13T03:56:16.631Z,519
2018-11-13T03:57:23.561Z,518
2018-11-13T03:58:30.784Z,514
2018-11-13T03:59:37.985Z,516
2018-11-13T04:00:44.638Z,520
2018-11-13T04:01:51.837Z,521
2018-11-13T04:02:59.246Z,522
2018-11-13T04:04:06.454Z,523
2018-11-13T04:05:13.123Z,523
2018-11-13T04:06:20.326Z,524
2018-11-13T04:07:27.533Z,525
2018-11-13T04:08:34.737Z,526
2018-11-13T04:09:41.665Z,525
2018-11-13T04:10:48.589Z,526
2018-11-13T04:11:55.801Z,528
2018-11-13T04:13:03.005Z,528
2018-11-13T04:14:09.934Z,522
2018-11-13T04:15:17.140Z,523
2018-11-13T04:16:24.341Z,523
2018-11-13T04:17:31.550Z,525
2018-11-13T04:18:38.751Z,525
2018-11-13T04:19:45.954Z,526
2018-11-13T04:20:53.159Z,525
2018-11-13T04:22:00.362Z,525
2018-11-13T04:23:07.566Z,524
2018-11-13T04:24:14.493Z,526
2018-11-13T04:25:21.695Z,525
2018-11-13T04:26:28.895Z,525
2018-11-13T04:27:35.544Z,526
2018-11-13T04:28:42.745Z,525
2018-11-13T04:29:49.672Z,525
2018-11-13T04:30:56.887Z,525
2018-11-13T04:32:03.820Z,525
2018-11-13T04:33:11.025Z,526
2018-11-13T04:34:17.959Z,526
2018-11-13T04:35:25.153Z,526
2018-11-13T04:36:31.819Z,526
2018-11-13T04:37:39.040Z,526
2018-11-13T04:38:46.238Z,527
2018-11-13T04:39:53.162Z,526
2018-11-13T04:41:00.363Z,524
2018-11-13T04:42:07.567Z,524
2018-11-13T04:43:14.774Z,525
2018-11-13T04:44:21.702Z,525
2018-11-13T04:45:28.633Z,524
2018-11-13T04:46:35.837Z,525
2018-11-13T04:47:43.050Z,525
2018-11-13T04:48:49.746Z,526
2018-11-13T04:49:56.959Z,527
2018-11-13T04:51:04.170Z,527
2018-11-13T04:52:10.834Z,527
2018-11-13T04:53:17.764Z,528
2018-11-13T04:54:24.698Z,527
2018-11-13T04:55:31.627Z,529
2018-11-13T04:56:38.834Z,529
2018-11-13T04:57:46.031Z,530
2018-11-13T04:58:52.952Z,531
2018-11-13T04:59:59.885Z,531
2018-11-13T05:01:07.090Z,531
2018-11-13T05:02:14.279Z,532
2018-11-13T05:03:21.212Z,535
2018-11-13T05:04:27.871Z,534
2018-11-13T05:05:34.801Z,535
2018-11-13T05:06:42.230Z,537
2018-11-13T05:07:49.164Z,537
2018-11-13T05:08:56.102Z,537
2018-11-13T05:10:03.586Z,539
2018-11-13T05:11:10.876Z,539
2018-11-13T05:12:17.534Z,539
2018-11-13T05:13:24.732Z,540
2018-11-13T05:14:31.931Z,540
2018-11-13T05:15:38.863Z,541
2018-11-13T05:16:46.078Z,541
2018-11-13T05:17:53.290Z,541
2018-11-13T05:19:00.219Z,542
2018-11-13T05:20:06.597Z,542
2018-11-13T05:21:13.534Z,541
2018-11-13T05:22:20.731Z,541
2018-11-13T05:23:27.933Z,541
2018-11-13T05:24:35.134Z,543
2018-11-13T05:25:42.071Z,545
2018-11-13T05:26:48.715Z,546
2018-11-13T05:27:55.919Z,546
2018-11-13T05:29:03.126Z,547
2018-11-13T05:30:10.043Z,548
2018-11-13T05:31:16.976Z,548
2018-11-13T05:32:23.910Z,548
2018-11-13T05:33:31.111Z,548
2018-11-13T05:34:38.045Z,549
2018-11-13T05:35:45.252Z,549
2018-11-13T05:36:52.191Z,549
2018-11-13T05:37:59.395Z,548
2018-11-13T05:39:06.602Z,548
2018-11-13T05:40:13.811Z,548
2018-11-13T05:41:20.745Z,547
2018-11-13T05:42:27.669Z,548
2018-11-13T05:43:34.881Z,547
2018-11-13T05:44:41.545Z,547
2018-11-13T05:45:48.757Z,547
2018-11-13T05:46:55.684Z,545
2018-11-13T05:48:02.613Z,546
2018-11-13T05:49:09.822Z,546
2018-11-13T05:50:16.477Z,545
2018-11-13T05:51:23.678Z,544
2018-11-13T05:52:30.884Z,543
2018-11-13T05:53:37.803Z,543
2018-11-13T05:54:44.472Z,544
2018-11-13T05:55:51.115Z,543
2018-11-13T05:56:58.041Z,541
2018-11-13T05:58:04.421Z,542
2018-11-13T05:59:11.088Z,541
2018-11-13T06:00:18.295Z,541
2018-11-13T06:01:25.504Z,541
2018-11-13T06:02:32.430Z,539
2018-11-13T06:03:39.360Z,540
2018-11-13T06:04:46.294Z,539
2018-11-13T06:05:52.958Z,539
2018-11-13T06:07:00.166Z,539
2018-11-13T06:08:07.100Z,538
2018-11-13T06:09:14.040Z,538
2018-11-13T06:10:20.960Z,538
2018-11-13T06:11:27.613Z,537
2018-11-13T06:12:34.811Z,537
2018-11-13T06:13:41.744Z,536
2018-11-13T06:14:48.676Z,537
2018-11-13T06:15:55.329Z,537
2018-11-13T06:17:02.536Z,534
2018-11-13T06:18:09.863Z,536
2018-11-13T06:19:17.117Z,535
2018-11-13T06:20:24.093Z,534
2018-11-13T06:21:31.294Z,532
2018-11-13T06:22:38.231Z,526
2018-11-13T06:23:45.435Z,524
2018-11-13T06:24:52.074Z,532
2018-11-13T06:25:58.998Z,524
2018-11-13T06:27:06.228Z,520
2018-11-13T06:28:13.435Z,518
2018-11-13T06:29:20.726Z,513
2018-11-13T06:30:27.981Z,509
2018-11-13T06:31:34.642Z,511
2018-11-13T06:32:41.575Z,509
2018-11-13T06:33:48.776Z,503
2018-11-13T06:34:55.704Z,503
2018-11-13T06:36:02.910Z,497
2018-11-13T06:37:09.833Z,493
2018-11-13T06:38:16.756Z,495
2018-11-13T06:39:23.955Z,494
2018-11-13T06:40:31.155Z,492
2018-11-13T06:41:38.357Z,496
2018-11-13T06:42:45.572Z,497
2018-11-13T06:43:52.219Z,499
2018-11-13T06:44:59.141Z,491
2018-11-13T06:46:06.069Z,485
2018-11-13T06:47:13.269Z,483
2018-11-13T06:48:20.196Z,483
2018-11-13T06:49:27.273Z,480
2018-11-13T06:50:34.255Z,479
2018-11-13T06:51:41.183Z,481
2018-11-13T06:52:47.841Z,489
2018-11-13T06:53:54.765Z,488
2018-11-13T06:55:01.684Z,489
2018-11-13T06:56:08.610Z,483
2018-11-13T06:57:15.813Z,480
2018-11-13T06:58:22.748Z,476
2018-11-13T06:59:29.681Z,477
2018-11-13T07:00:36.882Z,480
2018-11-13T07:01:43.808Z,482
2018-11-13T07:02:50.736Z,481
2018-11-13T07:03:57.938Z,483
2018-11-13T07:05:04.108Z,486
2018-11-13T07:06:10.862Z,489
2018-11-13T07:07:17.794Z,487
2018-11-13T07:08:24.173Z,487
2018-11-13T07:09:31.104Z,488
2018-11-13T07:10:38.144Z,486
2018-11-13T07:11:45.413Z,486
2018-11-13T07:12:52.074Z,486
2018-11-13T07:13:59.004Z,487
2018-11-13T07:15:06.213Z,492
2018-11-13T07:16:13.418Z,495
2018-11-13T07:17:20.345Z,494
2018-11-13T07:18:27.812Z,491
2018-11-13T07:19:35.212Z,490
2018-11-13T07:20:42.151Z,489
2018-11-13T07:21:48.798Z,489
2018-11-13T07:22:55.728Z,490
2018-11-13T07:24:02.668Z,489
2018-11-13T07:25:09.599Z,492
2018-11-13T07:26:16.525Z,492
2018-11-13T07:27:23.863Z,492
2018-11-13T07:28:30.178Z,493
2018-11-13T07:29:36.841Z,494
2018-11-13T07:30:43.772Z,496
2018-11-13T07:31:50.976Z,496
2018-11-13T07:32:57.626Z,498
2018-11-13T07:34:04.560Z,498
2018-11-13T07:35:11.764Z,499
2018-11-13T07:36:18.420Z,499
2018-11-13T07:37:25.350Z,500
2018-11-13T07:38:32.557Z,502
2018-11-13T07:39:39.488Z,502
2018-11-13T07:40:46.697Z,503
2018-11-13T07:41:53.685Z,503
2018-11-13T07:43:00.336Z,504
2018-11-13T07:44:07.541Z,504
2018-11-13T07:45:14.203Z,504
2018-11-13T07:46:21.141Z,504
2018-11-13T07:47:28.793Z,498
2018-11-13T07:48:36.232Z,503
2018-11-13T07:49:43.164Z,505
2018-11-13T07:50:50.373Z,506
2018-11-13T07:51:57.586Z,508
2018-11-13T07:53:04.513Z,511
2018-11-13T07:54:11.445Z,511
2018-11-13T07:55:18.373Z,508
2018-11-13T07:56:25.304Z,506
2018-11-13T07:57:32.232Z,506
2018-11-13T07:58:39.155Z,505
2018-11-13T07:59:46.079Z,506
2018-11-13T08:00:53.283Z,507
2018-11-13T08:02:00.485Z,507
2018-11-13T08:03:07.416Z,508
2018-11-13T08:04:14.622Z,508
2018-11-13T08:05:21.551Z,504
2018-11-13T08:06:28.838Z,506
2018-11-13T08:07:35.790Z,504
2018-11-13T08:08:42.992Z,501
2018-11-13T08:09:49.915Z,501
2018-11-13T08:10:57.124Z,500
2018-11-13T08:12:04.326Z,502
2018-11-13T08:13:11.714Z,499
2018-11-13T08:14:19.319Z,502
2018-11-13T08:15:26.264Z,502
2018-11-13T08:16:33.632Z,502
2018-11-13T08:17:39.983Z,504
2018-11-13T08:18:47.299Z,503
2018-11-13T08:19:54.227Z,502
2018-11-13T08:21:01.337Z,503
2018-11-13T08:22:07.918Z,503
2018-11-13T08:23:15.287Z,504
2018-11-13T08:24:22.499Z,501
2018-11-13T08:25:29.705Z,503
2018-11-13T08:26:36.694Z,503
2018-11-13T08:27:43.794Z,503
2018-11-13T08:28:51.146Z,501
2018-11-13T08:29:58.534Z,503
2018-11-13T08:31:05.459Z,504
2018-11-13T08:32:12.395Z,502
2018-11-13T08:33:19.494Z,498
2018-11-13T08:34:26.931Z,503
2018-11-13T08:35:34.004Z,503
2018-11-13T08:36:41.213Z,500
2018-11-13T08:37:48.145Z,500
2018-11-13T08:38:55.105Z,502
2018-11-13T08:40:02.310Z,500
2018-11-13T08:41:09.514Z,498
2018-11-13T08:42:16.725Z,498
2018-11-13T08:43:23.930Z,497
2018-11-13T08:44:30.594Z,497
2018-11-13T08:45:37.520Z,496
2018-11-13T08:46:44.454Z,495
2018-11-13T08:47:51.386Z,497
2018-11-13T08:48:58.319Z,494
2018-11-13T08:50:05.626Z,496
2018-11-13T08:51:12.555Z,496
2018-11-13T08:52:19.215Z,495
2018-11-13T08:53:26.142Z,497
2018-11-13T08:54:33.341Z,496
2018-11-13T08:55:40.549Z,497
2018-11-13T08:56:47.477Z,496
2018-11-13T08:57:54.631Z,506
2018-11-13T08:59:02.411Z,502
2018-11-13T09:00:09.803Z,500
2018-11-13T09:01:16.739Z,500
2018-11-13T09:02:23.983Z,500
2018-11-13T09:03:30.905Z,499
2018-11-13T09:04:38.107Z,500
2018-11-13T09:05:45.041Z,503
2018-11-13T09:06:51.967Z,502
2018-11-13T09:07:58.625Z,505
2018-11-13T09:09:05.549Z,509
2018-11-13T09:10:12.482Z,509
2018-11-13T09:11:19.861Z,509
2018-11-13T09:12:27.328Z,511
2018-11-13T09:13:34.785Z,511
2018-11-13T09:14:41.986Z,510
2018-11-13T09:15:49.191Z,513
2018-11-13T09:16:56.391Z,513
2018-11-13T09:18:03.760Z,514
2018-11-13T09:19:10.578Z,515
2018-11-13T09:20:18.117Z,514
2018-11-13T09:21:25.081Z,514
2018-11-13T09:22:32.286Z,513
2018-11-13T09:23:39.215Z,515
2018-11-13T09:24:46.416Z,514
2018-11-13T09:25:53.345Z,516
2018-11-13T09:27:00.010Z,514
2018-11-13T09:28:07.211Z,515
2018-11-13T09:29:14.413Z,514
2018-11-13T09:30:22.173Z,514
2018-11-13T09:31:29.356Z,515
2018-11-13T09:32:36.153Z,514
2018-11-13T09:33:43.178Z,515
2018-11-13T09:34:49.830Z,517
2018-11-13T09:35:56.863Z,517
2018-11-13T09:37:03.791Z,517
2018-11-13T09:38:11.005Z,519
2018-11-13T09:39:17.996Z,520
2018-11-13T09:40:25.234Z,519
2018-11-13T09:41:32.163Z,521
2018-11-13T09:42:39.375Z,520
2018-11-13T09:43:46.578Z,519
2018-11-13T09:44:53.008Z,520
2018-11-13T09:46:00.038Z,519
2018-11-13T09:47:07.351Z,518
2018-11-13T09:48:14.561Z,516
2018-11-13T09:49:21.212Z,516
2018-11-13T09:50:28.212Z,516
2018-11-13T09:51:35.419Z,515
2018-11-13T09:52:42.628Z,516
2018-11-13T09:53:49.880Z,512
2018-11-13T09:54:57.059Z,511
2018-11-13T09:56:03.997Z,509
2018-11-13T09:57:11.205Z,508
2018-11-13T09:58:17.871Z,507
2018-11-13T09:59:25.085Z,506
2018-11-13T10:00:33.149Z,501
2018-11-13T10:01:42.316Z,498
2018-11-13T10:02:52.314Z,494
2018-11-13T10:04:03.946Z,493
2018-11-13T10:05:15.997Z,491
2018-11-13T10:06:23.368Z,491
2018-11-13T10:07:30.581Z,491
2018-11-13T10:08:37.778Z,491
2018-11-13T10:09:44.713Z,491
2018-11-13T10:10:52.475Z,490
2018-11-13T10:11:59.887Z,489
2018-11-13T10:13:06.551Z,490
2018-11-13T10:14:13.489Z,490
2018-11-13T10:15:20.170Z,490
2018-11-13T10:16:27.101Z,491
2018-11-13T10:17:34.382Z,491
2018-11-13T10:18:41.720Z,491
2018-11-13T10:19:48.662Z,492
2018-11-13T10:20:55.876Z,491
2018-11-13T10:22:02.540Z,492
2018-11-13T10:23:09.754Z,492
2018-11-13T10:24:16.683Z,492
2018-11-13T10:25:23.887Z,492
2018-11-13T10:26:31.599Z,500
2018-11-13T10:27:39.165Z,505
2018-11-13T10:28:46.048Z,503
2018-11-13T10:29:52.994Z,504
2018-11-13T10:31:00.240Z,504
2018-11-13T10:32:07.174Z,499
2018-11-13T10:33:14.102Z,503
2018-11-13T10:34:21.036Z,504
2018-11-13T10:35:27.965Z,509
2018-11-13T10:36:35.191Z,512
2018-11-13T10:37:42.126Z,504
2018-11-13T10:38:48.776Z,514
2018-11-13T10:39:55.833Z,514
2018-11-13T10:41:03.651Z,511
2018-11-13T10:42:10.782Z,513
2018-11-13T10:43:17.983Z,513
2018-11-13T10:44:24.917Z,513
2018-11-13T10:45:32.132Z,513
2018-11-13T10:46:39.053Z,511
2018-11-13T10:47:45.705Z,511
2018-11-13T10:48:53.076Z,511
2018-11-13T10:50:00.036Z,510
2018-11-13T10:51:06.677Z,510
2018-11-13T10:52:13.884Z,507
2018-11-13T10:53:20.535Z,506
2018-11-13T10:54:27.468Z,510
2018-11-13T10:55:34.404Z,503
2018-11-13T10:56:41.340Z,505
2018-11-13T10:57:48.546Z,510
2018-11-13T10:58:55.749Z,509
2018-11-13T11:00:02.956Z,503
2018-11-13T11:01:09.890Z,498
2018-11-13T11:02:17.277Z,502
2018-11-13T11:03:24.258Z,499
2018-11-13T11:04:31.265Z,498
2018-11-13T11:05:38.250Z,503
2018-11-13T11:06:44.892Z,503
2018-11-13T11:07:51.836Z,508
2018-11-13T11:08:59.042Z,508
2018-11-13T11:10:06.248Z,511
2018-11-13T11:11:13.461Z,515
2018-11-13T11:12:20.757Z,512
2018-11-13T11:13:28.082Z,513
2018-11-13T11:14:35.145Z,513
2018-11-13T11:15:42.072Z,513
2018-11-13T11:16:49.284Z,513
2018-11-13T11:17:56.543Z,514
2018-11-13T11:19:04.114Z,514
2018-11-13T11:20:11.306Z,513
2018-11-13T11:21:18.237Z,511
2018-11-13T11:22:25.443Z,510
2018-11-13T11:23:33.048Z,512
2018-11-13T11:24:40.293Z,510
2018-11-13T11:25:47.231Z,509
2018-11-13T11:26:54.164Z,505
2018-11-13T11:28:01.205Z,501
2018-11-13T11:29:08.442Z,495
2018-11-13T11:30:15.651Z,491
2018-11-13T11:31:22.868Z,485
2018-11-13T11:32:30.083Z,483
2018-11-13T11:33:37.290Z,482
2018-11-13T11:34:44.218Z,482
2018-11-13T11:35:51.448Z,478
2018-11-13T11:36:58.646Z,479
2018-11-13T11:38:05.311Z,480
2018-11-13T11:39:12.498Z,481
2018-11-13T11:40:19.436Z,481
2018-11-13T11:41:26.375Z,482
2018-11-13T11:42:33.322Z,478
2018-11-13T11:43:40.533Z,478
2018-11-13T11:44:47.745Z,474
2018-11-13T11:45:54.957Z,478
2018-11-13T11:47:02.162Z,477
2018-11-13T11:48:08.826Z,479
2018-11-13T11:49:15.484Z,481
2018-11-13T11:50:22.444Z,476
2018-11-13T11:51:29.370Z,473
2018-11-13T11:52:36.577Z,470
2018-11-13T11:53:43.610Z,468
2018-11-13T11:54:50.945Z,468
2018-11-13T11:55:58.150Z,469
2018-11-13T11:57:05.357Z,467
2018-11-13T11:58:12.011Z,464
2018-11-13T11:59:18.390Z,472
2018-11-13T12:00:25.701Z,475
2018-11-13T12:01:32.964Z,477
2018-11-13T12:02:40.171Z,480
2018-11-13T12:03:47.380Z,479
2018-11-13T12:04:54.589Z,480
2018-11-13T12:06:01.794Z,481
2018-11-13T12:07:08.778Z,470
2018-11-13T12:08:15.666Z,468
2018-11-13T12:09:22.872Z,468
2018-11-13T12:10:29.807Z,465
2018-11-13T12:11:36.729Z,467
2018-11-13T12:12:43.667Z,468
2018-11-13T12:13:50.602Z,466
2018-11-13T12:14:57.254Z,472
2018-11-13T12:16:04.461Z,474
2018-11-13T12:17:10.842Z,469
2018-11-13T12:18:18.057Z,466
2018-11-13T12:19:25.533Z,468
2018-11-13T12:20:32.614Z,474
2018-11-13T12:21:39.857Z,478
2018-11-13T12:22:46.800Z,471
2018-11-13T12:23:53.447Z,470
2018-11-13T12:25:00.378Z,467
2018-11-13T12:26:07.587Z,467
2018-11-13T12:27:14.790Z,466
2018-11-13T12:28:21.460Z,467
2018-11-13T12:29:28.390Z,469
2018-11-13T12:30:35.048Z,472
2018-11-13T12:31:42.255Z,475
2018-11-13T12:32:48.915Z,475
2018-11-13T12:33:55.563Z,473
2018-11-13T12:35:02.773Z,473
2018-11-13T12:36:09.981Z,474
2018-11-13T12:37:16.912Z,476
2018-11-13T12:38:23.578Z,477
2018-11-13T12:39:30.505Z,477
2018-11-13T12:40:37.530Z,477
2018-11-13T12:41:44.729Z,475
2018-11-13T12:42:52.037Z,469
2018-11-13T12:43:58.698Z,463
2018-11-13T12:45:07.769Z,457
2018-11-13T12:46:14.437Z,458
2018-11-13T12:47:21.374Z,459
2018-11-13T12:48:28.589Z,466
2018-11-13T12:49:35.518Z,469
2018-11-13T12:50:42.732Z,470
2018-11-13T12:51:49.660Z,472
2018-11-13T12:52:56.874Z,475
2018-11-13T12:54:03.809Z,476
2018-11-13T12:55:11.036Z,476
2018-11-13T12:56:18.561Z,478
2018-11-13T12:57:25.916Z,477
2018-11-13T12:58:32.858Z,478
2018-11-13T12:59:40.065Z,479
2018-11-13T13:00:47.003Z,477
2018-11-13T13:01:54.414Z,477
2018-11-13T13:03:01.609Z,477
2018-11-13T13:04:08.549Z,479
2018-11-13T13:05:15.490Z,479
2018-11-13T13:06:22.430Z,480
2018-11-13T13:07:29.355Z,479
2018-11-13T13:08:36.078Z,479
2018-11-13T13:09:42.789Z,480
2018-11-13T13:10:49.735Z,479
2018-11-13T13:11:56.667Z,475
2018-11-13T13:13:03.892Z,478
2018-11-13T13:14:10.552Z,479
2018-11-13T13:15:17.758Z,480
2018-11-13T13:16:24.694Z,479
2018-11-13T13:17:31.631Z,478
2018-11-13T13:18:38.907Z,479
2018-11-13T13:19:45.282Z,480
2018-11-13T13:20:51.954Z,479
2018-11-13T13:21:58.948Z,479
2018-11-13T13:23:05.601Z,481
2018-11-13T13:24:12.807Z,481
2018-11-13T13:25:20.020Z,481
2018-11-13T13:26:26.960Z,482
2018-11-13T13:27:34.174Z,481
2018-11-13T13:28:41.385Z,481
2018-11-13T13:29:48.594Z,481
2018-11-13T13:30:55.535Z,479
2018-11-13T13:32:02.473Z,479
2018-11-13T13:33:09.688Z,480
2018-11-13T13:34:16.897Z,479
2018-11-13T13:35:24.103Z,479
2018-11-13T13:36:31.037Z,479
2018-11-13T13:37:38.248Z,480
2018-11-13T13:38:45.120Z,480
2018-11-13T13:39:52.100Z,480
2018-11-13T13:40:59.046Z,480
2018-11-13T13:42:06.251Z,480
2018-11-13T13:43:13.481Z,481
2018-11-13T13:44:19.872Z,480
2018-11-13T13:45:27.071Z,479
2018-11-13T13:46:34.362Z,480
2018-11-13T13:47:41.350Z,481
2018-11-13T13:48:48.011Z,481
2018-11-13T13:49:55.224Z,481
2018-11-13T13:51:02.180Z,480
2018-11-13T13:52:09.114Z,481
2018-11-13T13:53:16.321Z,480
2018-11-13T13:54:23.245Z,479
2018-11-13T13:55:30.096Z,479
2018-11-13T13:56:37.298Z,479
2018-11-13T13:57:44.241Z,478
2018-11-13T13:58:51.174Z,478
2018-11-13T13:59:59.237Z,477
2018-11-13T14:01:05.850Z,477
2018-11-13T14:02:13.214Z,477
2018-11-13T14:03:20.425Z,477
2018-11-13T14:04:27.634Z,478
2018-11-13T14:05:34.570Z,478
2018-11-13T14:06:41.782Z,477
2018-11-13T14:07:48.715Z,477
2018-11-13T14:08:55.419Z,476
2018-11-13T14:10:02.611Z,476
2018-11-13T14:11:09.822Z,477
2018-11-13T14:12:16.756Z,479
2018-11-13T14:13:23.969Z,479
2018-11-13T14:14:30.631Z,480
2018-11-13T14:15:37.538Z,479
2018-11-13T14:16:44.474Z,481
2018-11-13T14:17:51.690Z,483
2018-11-13T14:18:58.610Z,483
2018-11-13T14:20:05.815Z,483
2018-11-13T14:21:12.753Z,482
2018-11-13T14:22:19.690Z,483
2018-11-13T14:23:26.627Z,482
2018-11-13T14:24:33.306Z,482
2018-11-13T14:25:39.683Z,481
2018-11-13T14:26:46.458Z,482
2018-11-13T14:27:53.412Z,482
2018-11-13T14:29:00.225Z,483
2018-11-13T14:30:06.844Z,483
2018-11-13T14:31:13.505Z,483
2018-11-13T14:32:20.446Z,481
2018-11-13T14:33:27.125Z,479
2018-11-13T14:34:34.055Z,477
2018-11-13T14:35:41.349Z,476
2018-11-13T14:36:48.810Z,477
2018-11-13T14:37:55.750Z,477
2018-11-13T14:39:02.407Z,478
2018-11-13T14:40:09.611Z,481
2018-11-13T14:41:16.543Z,483
2018-11-13T14:42:23.749Z,483
2018-11-13T14:43:30.419Z,484
2018-11-13T14:44:37.625Z,484
2018-11-13T14:45:44.840Z,484
2018-11-13T14:46:52.049Z,483
2018-11-13T14:47:58.989Z,481
2018-11-13T14:49:05.915Z,482
2018-11-13T14:50:12.572Z,482
2018-11-13T14:51:19.230Z,482
2018-11-13T14:52:26.450Z,482
2018-11-13T14:53:33.387Z,482
2018-11-13T14:54:40.591Z,482
2018-11-13T14:55:47.801Z,482
2018-11-13T14:56:54.462Z,483
2018-11-13T14:58:01.678Z,484
2018-11-13T14:59:08.618Z,486
2018-11-13T15:00:15.552Z,485
2018-11-13T15:01:22.505Z,484
2018-11-13T15:02:29.179Z,485
2018-11-13T15:03:36.112Z,484
2018-11-13T15:04:43.047Z,483
2018-11-13T15:05:49.706Z,483
2018-11-13T15:06:56.913Z,484
2018-11-13T15:08:05.980Z,484
2018-11-13T15:09:13.393Z,484
2018-11-13T15:10:20.605Z,485
2018-11-13T15:11:27.535Z,486
2018-11-13T15:12:34.188Z,486
2018-11-13T15:13:41.397Z,487
2018-11-13T15:14:48.332Z,486
2018-11-13T15:15:55.541Z,486
2018-11-13T15:17:02.751Z,486
2018-11-13T15:18:09.950Z,487
2018-11-13T15:19:16.600Z,488
2018-11-13T15:20:23.809Z,488
2018-11-13T15:21:30.741Z,488
2018-11-13T15:22:37.674Z,487
2018-11-13T15:23:44.879Z,487